Terminal Aerodrome Forecast
Issued by NWS

Home | Current Version | Previous Version | Text Only | Print | Product List | Glossary On
Versions: 1 2 3 4 5 6 7 8 9 10 11 12 13 14 15 16 17 18 19
428
FTUS43 KLSX 251731
TAFCPS
TAF
KCPS 251731Z 2518/2618 30013G23KT P6SM SCT040
     FM260000 31007KT P6SM FEW250
     FM260300 VRB03KT P6SM FEW250
     FM261400 18007KT P6SM BKN130=

USA.gov is the U.S. government's official web portal to all federal, state and local government web resources and services.